createdAt,value
2022-11-10T00:01:09.387Z,15.73
2022-11-10T00:02:30.199Z,15.27
2022-11-10T00:03:52.029Z,16.42
2022-11-10T00:05:16.036Z,15.77
2022-11-10T00:06:36.855Z,15.52
2022-11-10T00:07:58.746Z,16.25
2022-11-10T00:09:20.896Z,16.33
2022-11-10T00:11:01.580Z,17.30
2022-11-10T00:12:22.937Z,15.88
2022-11-10T00:14:02.307Z,17.30
2022-11-10T00:15:42.394Z,17.05
2022-11-10T00:17:04.827Z,16.95
2022-11-10T00:18:25.335Z,16.48
2022-11-10T00:19:45.818Z,17.60
2022-11-10T00:21:08.747Z,17.42
2022-11-10T00:22:31.428Z,16.88
2022-11-10T00:23:52.296Z,17.05
2022-11-10T00:25:13.315Z,16.67
2022-11-10T00:26:35.212Z,17.55
2022-11-10T00:27:59.012Z,16.10
2022-11-10T00:29:19.675Z,16.60
2022-11-10T00:30:43.343Z,17.10
2022-11-10T00:32:06.558Z,17.52
2022-11-10T00:33:27.016Z,17.23
2022-11-10T00:34:49.585Z,17.45
2022-11-10T00:36:11.288Z,17.08
2022-11-10T00:37:34.224Z,17.45
2022-11-10T00:38:54.925Z,16.42
2022-11-10T00:40:15.742Z,17.80
2022-11-10T00:41:36.759Z,17.15
2022-11-10T00:43:00.298Z,17.05
2022-11-10T00:44:21.079Z,17.73
2022-11-10T00:45:44.606Z,17.98
2022-11-10T00:47:08.124Z,17.15
2022-11-10T00:48:30.098Z,17.00
2022-11-10T00:49:51.172Z,17.25
2022-11-10T00:51:31.664Z,16.67
2022-11-10T00:52:52.272Z,17.52
2022-11-10T00:54:14.179Z,18.20
2022-11-10T00:55:41.851Z,17.95
2022-11-10T00:57:03.751Z,17.98
2022-11-10T00:58:24.558Z,17.42
2022-11-10T00:59:45.870Z,18.52
2022-11-10T01:01:07.593Z,17.80
2022-11-10T01:02:29.224Z,16.70
2022-11-10T01:03:51.725Z,17.02
2022-11-10T01:05:12.118Z,17.70
2022-11-10T01:06:36.026Z,17.92
2022-11-10T01:08:00.288Z,18.60
2022-11-10T01:09:21.334Z,18.95
2022-11-10T01:10:41.896Z,18.02
2022-11-10T01:12:02.518Z,18.45
2022-11-10T01:13:23.308Z,17.95
2022-11-10T01:14:44.024Z,17.85
2022-11-10T01:16:16.904Z,17.52
2022-11-10T01:17:37.709Z,17.45
2022-11-10T01:19:01.854Z,18.90
2022-11-10T01:20:24.516Z,18.33
2022-11-10T01:21:45.079Z,19.40
2022-11-10T01:23:06.568Z,18.63
2022-11-10T01:24:27.462Z,18.40
2022-11-10T01:25:48.031Z,19.00
2022-11-10T01:27:09.596Z,18.13
2022-11-10T01:28:32.032Z,17.70
2022-11-10T01:29:54.731Z,18.85
2022-11-10T01:31:22.174Z,18.40
2022-11-10T01:32:43.083Z,18.05
2022-11-10T01:34:03.922Z,17.88
2022-11-10T01:35:25.383Z,19.67
2022-11-10T01:36:48.831Z,17.52
2022-11-10T01:38:09.692Z,18.75
2022-11-10T01:39:33.229Z,18.23
2022-11-10T01:40:54.369Z,19.45
2022-11-10T01:42:14.816Z,18.02
2022-11-10T01:43:35.802Z,18.60
2022-11-10T01:45:42.303Z,18.20
2022-11-10T01:47:05.774Z,17.57
2022-11-10T01:48:38.062Z,18.58
2022-11-10T01:49:58.758Z,19.08
2022-11-10T01:51:21.739Z,19.38
2022-11-10T01:52:47.276Z,20.00
2022-11-10T01:54:20.624Z,18.50
2022-11-10T01:55:47.160Z,18.77
2022-11-10T01:57:11.908Z,18.48
2022-11-10T01:58:40.232Z,19.33
2022-11-10T02:00:22.095Z,19.10
2022-11-10T02:01:48.430Z,19.30
2022-11-10T02:03:20.148Z,19.52
2022-11-10T02:04:42.631Z,19.08
2022-11-10T02:06:04.600Z,19.23
2022-11-10T02:07:28.659Z,18.30
2022-11-10T02:08:50.912Z,19.50
2022-11-10T02:10:19.518Z,19.02
2022-11-10T02:13:03.525Z,18.88
2022-11-10T02:14:25.760Z,18.80
2022-11-10T02:15:46.678Z,19.00
2022-11-10T02:17:07.638Z,19.05
2022-11-10T02:18:29.943Z,19.10
2022-11-10T02:19:51.971Z,18.90
2022-11-10T02:21:17.123Z,19.25
2022-11-10T02:22:37.680Z,19.08
2022-11-10T02:23:58.545Z,20.88
2022-11-10T02:25:22.884Z,19.65
2022-11-10T02:26:55.084Z,19.95
2022-11-10T02:28:15.505Z,19.17
2022-11-10T02:29:36.597Z,19.70
2022-11-10T02:30:57.034Z,19.70
2022-11-10T02:32:18.185Z,20.08
2022-11-10T02:33:38.956Z,20.05
2022-11-10T02:34:59.431Z,19.38
2022-11-10T02:36:19.874Z,19.00
2022-11-10T02:37:40.404Z,19.63
2022-11-10T02:39:00.966Z,19.63
2022-11-10T02:40:21.788Z,20.20
2022-11-10T02:41:44.328Z,19.45
2022-11-10T02:43:09.806Z,19.60
2022-11-10T02:44:32.022Z,18.92
2022-11-10T02:45:58.251Z,18.77
2022-11-10T02:47:18.834Z,19.50
2022-11-10T02:48:40.566Z,18.77
2022-11-10T02:50:01.427Z,19.20
2022-11-10T02:51:22.066Z,20.13
2022-11-10T02:52:42.669Z,19.48
2022-11-10T02:54:03.494Z,19.25
2022-11-10T02:55:27.002Z,18.75
2022-11-10T02:56:47.589Z,19.15
2022-11-10T02:58:08.077Z,18.85
2022-11-10T02:59:29.431Z,18.83
2022-11-10T03:00:51.659Z,19.27
2022-11-10T03:02:12.540Z,19.63
2022-11-10T03:03:34.645Z,18.75
2022-11-10T03:04:56.130Z,19.55
2022-11-10T03:06:17.427Z,18.58
2022-11-10T03:07:37.846Z,18.60
2022-11-10T03:08:58.690Z,18.30
2022-11-10T03:10:19.413Z,19.10
2022-11-10T03:11:39.867Z,19.08
2022-11-10T03:13:02.369Z,19.40
2022-11-10T03:14:22.817Z,18.88
2022-11-10T03:15:43.475Z,18.85
2022-11-10T03:17:04.034Z,19.17
2022-11-10T03:18:24.856Z,18.15
2022-11-10T03:19:45.752Z,20.27
2022-11-10T03:21:06.720Z,19.05
2022-11-10T03:22:45.923Z,19.20
2022-11-10T03:24:06.777Z,19.80
2022-11-10T03:25:27.594Z,19.50
2022-11-10T03:26:48.160Z,19.58
2022-11-10T03:28:09.518Z,19.92
2022-11-10T03:29:31.184Z,18.98
2022-11-10T03:30:52.072Z,19.27
2022-11-10T03:32:12.515Z,19.08
2022-11-10T03:33:33.558Z,19.20
2022-11-10T03:34:55.593Z,18.75
2022-11-10T03:36:16.072Z,19.83
2022-11-10T03:37:37.309Z,18.77
2022-11-10T03:38:59.850Z,19.30
2022-11-10T03:40:20.782Z,18.83
2022-11-10T03:41:43.224Z,18.70
2022-11-10T03:43:03.806Z,18.90
2022-11-10T03:44:25.176Z,19.08
2022-11-10T03:45:46.499Z,19.02
2022-11-10T03:47:07.277Z,19.10
2022-11-10T03:48:27.906Z,19.55
2022-11-10T03:49:48.390Z,18.98
2022-11-10T03:51:09.635Z,19.02
2022-11-10T03:52:30.502Z,18.38
2022-11-10T03:53:51.393Z,19.40
2022-11-10T03:55:14.872Z,19.80
2022-11-10T03:56:35.615Z,19.15
2022-11-10T03:57:55.859Z,18.80
2022-11-10T03:59:16.264Z,19.42
2022-11-10T04:00:36.473Z,18.40
2022-11-10T04:01:58.506Z,18.80
2022-11-10T04:03:19.151Z,19.35
2022-11-10T04:04:58.632Z,19.15
2022-11-10T04:06:57.853Z,19.17
2022-11-10T04:08:37.120Z,18.58
2022-11-10T04:09:58.194Z,19.40
2022-11-10T04:11:39.464Z,18.58
2022-11-10T04:13:17.944Z,19.10
2022-11-10T04:14:57.426Z,19.60
2022-11-10T04:16:18.336Z,18.98
2022-11-10T04:17:38.866Z,19.50
2022-11-10T04:19:01.254Z,18.90
2022-11-10T04:20:22.011Z,18.85
2022-11-10T04:21:43.214Z,18.80
2022-11-10T04:23:23.098Z,19.58
2022-11-10T04:24:44.040Z,20.70
2022-11-10T04:26:26.965Z,20.48
2022-11-10T04:27:47.907Z,20.40
2022-11-10T04:29:11.060Z,19.70
2022-11-10T04:30:31.907Z,20.27
2022-11-10T04:31:52.867Z,19.48
2022-11-10T04:33:13.514Z,19.95
2022-11-10T04:34:34.156Z,19.95
2022-11-10T04:35:54.982Z,20.63
2022-11-10T04:37:15.462Z,20.48
2022-11-10T04:38:36.317Z,19.35
2022-11-10T04:39:56.677Z,20.23
2022-11-10T04:41:18.166Z,20.40
2022-11-10T04:42:40.324Z,21.30
2022-11-10T04:44:02.244Z,19.55
2022-11-10T04:45:23.235Z,20.15
2022-11-10T04:46:45.771Z,20.20
2022-11-10T04:48:08.992Z,20.58
2022-11-10T04:49:29.510Z,19.88
2022-11-10T04:50:53.616Z,19.77
2022-11-10T04:52:16.556Z,19.42
2022-11-10T04:53:37.635Z,20.40
2022-11-10T04:54:57.988Z,20.67
2022-11-10T04:56:21.705Z,19.75
2022-11-10T04:57:43.255Z,20.02
2022-11-10T04:59:04.078Z,19.67
2022-11-10T05:00:24.711Z,20.77
2022-11-10T05:01:45.639Z,20.67
2022-11-10T05:03:11.067Z,19.63
2022-11-10T05:04:31.899Z,19.98
2022-11-10T05:05:52.762Z,19.98
2022-11-10T05:07:13.836Z,19.80
2022-11-10T05:08:34.777Z,19.63
2022-11-10T05:09:55.703Z,19.52
2022-11-10T05:11:16.968Z,19.08
2022-11-10T05:12:37.825Z,20.17
2022-11-10T05:13:58.436Z,20.27
2022-11-10T05:15:19.557Z,19.17
2022-11-10T05:16:40.737Z,20.38
2022-11-10T05:18:03.042Z,19.58
2022-11-10T05:19:23.986Z,20.33
2022-11-10T05:20:47.418Z,18.95
2022-11-10T05:22:08.482Z,19.63
2022-11-10T05:23:38.388Z,19.05
2022-11-10T05:24:58.894Z,20.15
2022-11-10T05:26:19.916Z,18.90
2022-11-10T05:27:41.022Z,18.20
2022-11-10T05:29:02.047Z,19.17
2022-11-10T05:30:23.057Z,18.70
2022-11-10T05:31:45.843Z,18.63
2022-11-10T05:33:11.720Z,19.23
2022-11-10T05:34:51.207Z,18.73
2022-11-10T05:36:12.003Z,18.98
2022-11-10T05:37:33.095Z,18.13
2022-11-10T05:38:53.669Z,17.70
2022-11-10T05:40:17.696Z,18.25
2022-11-10T05:41:41.446Z,19.35
2022-11-10T05:43:02.134Z,18.42
2022-11-10T05:44:22.518Z,17.92
2022-11-10T05:45:43.063Z,17.73
2022-11-10T05:47:03.932Z,17.08
2022-11-10T05:48:29.320Z,18.52
2022-11-10T05:49:53.794Z,16.75
2022-11-10T05:51:14.885Z,16.90
2022-11-10T05:52:36.162Z,16.42
2022-11-10T05:53:57.583Z,17.63
2022-11-10T05:55:20.670Z,17.73
2022-11-10T05:56:41.425Z,17.77
2022-11-10T05:58:02.524Z,17.45
2022-11-10T05:59:23.466Z,17.10
2022-11-10T06:00:44.724Z,16.83
2022-11-10T06:02:06.447Z,17.23
2022-11-10T06:03:27.624Z,15.63
2022-11-10T06:04:49.029Z,17.40
2022-11-10T06:06:09.479Z,18.27
2022-11-10T06:07:30.326Z,16.95
2022-11-10T06:08:52.223Z,17.38
2022-11-10T06:10:12.538Z,16.23
2022-11-10T06:11:33.279Z,16.17
2022-11-10T06:12:57.682Z,16.48
2022-11-10T06:14:18.313Z,15.95
2022-11-10T06:15:39.241Z,16.85
2022-11-10T06:16:59.786Z,15.40
2022-11-10T06:18:20.808Z,16.15
2022-11-10T06:19:41.640Z,15.02
2022-11-10T06:21:02.496Z,16.02
2022-11-10T06:22:23.099Z,16.40
2022-11-10T06:23:43.916Z,16.10
2022-11-10T06:25:06.843Z,15.02
2022-11-10T06:26:28.163Z,16.10
2022-11-10T06:27:50.731Z,15.35
2022-11-10T06:29:13.639Z,17.65
2022-11-10T06:30:37.522Z,15.38
2022-11-10T06:32:00.381Z,15.25
2022-11-10T06:33:21.296Z,14.85
2022-11-10T06:34:43.981Z,14.60
2022-11-10T06:36:04.582Z,14.90
2022-11-10T06:37:29.252Z,15.25
2022-11-10T06:38:50.110Z,14.38
2022-11-10T06:40:13.962Z,14.85
2022-11-10T06:41:34.470Z,14.65
2022-11-10T06:42:55.239Z,15.20
2022-11-10T06:44:15.990Z,14.25
2022-11-10T06:45:36.692Z,13.85
2022-11-10T06:46:57.215Z,14.68
2022-11-10T06:48:19.691Z,15.07
2022-11-10T06:49:41.567Z,14.93
2022-11-10T06:51:03.102Z,14.05
2022-11-10T06:52:24.311Z,14.98
2022-11-10T06:53:44.927Z,15.52
2022-11-10T06:55:06.415Z,14.93
2022-11-10T06:56:27.226Z,14.40
2022-11-10T06:57:48.195Z,14.07
2022-11-10T06:59:08.760Z,15.70
2022-11-10T07:00:30.113Z,15.73
2022-11-10T07:01:51.171Z,14.85
2022-11-10T07:03:14.895Z,14.80
2022-11-10T07:04:35.738Z,15.18
2022-11-10T07:05:58.542Z,16.17
2022-11-10T07:07:19.156Z,15.20
2022-11-10T07:08:39.930Z,14.68
2022-11-10T07:10:06.547Z,14.40
2022-11-10T07:11:27.864Z,15.07
2022-11-10T07:12:48.741Z,14.60
2022-11-10T07:14:11.708Z,15.32
2022-11-10T07:15:33.792Z,14.82
2022-11-10T07:16:54.671Z,14.23
2022-11-10T07:18:15.752Z,15.25
2022-11-10T07:19:36.368Z,14.93
2022-11-10T07:20:57.311Z,14.77
2022-11-10T07:22:18.810Z,14.70
2022-11-10T07:23:39.243Z,14.68
2022-11-10T07:24:59.896Z,14.52
2022-11-10T07:26:21.057Z,14.88
2022-11-10T07:27:43.211Z,14.35
2022-11-10T07:29:04.011Z,14.20
2022-11-10T07:30:25.251Z,13.90
2022-11-10T07:31:46.186Z,14.68
2022-11-10T07:33:14.985Z,14.82
2022-11-10T07:34:36.108Z,15.48
2022-11-10T07:35:58.429Z,15.00
2022-11-10T07:37:21.476Z,15.20
2022-11-10T07:38:42.261Z,14.75
2022-11-10T07:40:03.778Z,14.52
2022-11-10T07:41:24.582Z,15.15
2022-11-10T07:42:45.478Z,14.52
2022-11-10T07:44:07.576Z,15.43
2022-11-10T07:45:29.306Z,14.52
2022-11-10T07:46:49.792Z,14.63
2022-11-10T07:48:11.054Z,16.92
2022-11-10T07:49:31.696Z,15.18
2022-11-10T07:50:52.691Z,14.10
2022-11-10T07:52:13.176Z,14.40
2022-11-10T07:53:33.397Z,14.75
2022-11-10T07:54:53.804Z,15.50
2022-11-10T07:56:15.600Z,14.90
2022-11-10T07:57:36.390Z,14.40
2022-11-10T07:58:56.668Z,16.17
2022-11-10T08:00:17.853Z,16.20
2022-11-10T08:01:38.750Z,15.40
2022-11-10T08:03:12.608Z,15.77
2022-11-10T08:04:33.363Z,14.90
2022-11-10T08:05:54.000Z,16.20
2022-11-10T08:07:15.441Z,15.27
2022-11-10T08:08:36.068Z,15.85
2022-11-10T08:09:56.964Z,15.63
2022-11-10T08:11:17.874Z,17.13
2022-11-10T08:12:38.620Z,16.48
2022-11-10T08:13:59.555Z,16.60
2022-11-10T08:15:19.894Z,15.75
2022-11-10T08:16:40.469Z,16.08
2022-11-10T08:18:04.419Z,16.20
2022-11-10T08:19:25.332Z,15.75
2022-11-10T08:20:47.967Z,16.23
2022-11-10T08:22:08.501Z,15.93
2022-11-10T08:23:29.357Z,16.27
2022-11-10T08:24:49.727Z,16.15
2022-11-10T08:26:10.719Z,16.48
2022-11-10T08:27:32.336Z,16.90
2022-11-10T08:28:53.353Z,16.30
2022-11-10T08:30:13.902Z,16.48
2022-11-10T08:31:34.519Z,16.77
2022-11-10T08:32:57.931Z,16.95
2022-11-10T08:34:18.430Z,16.10
2022-11-10T08:35:42.922Z,16.70
2022-11-10T08:37:03.594Z,16.30
2022-11-10T08:38:25.223Z,17.88
2022-11-10T08:39:47.306Z,17.05
2022-11-10T08:41:10.826Z,17.65
2022-11-10T08:42:31.325Z,17.67
2022-11-10T08:43:52.158Z,17.38
2022-11-10T08:45:13.636Z,17.20
2022-11-10T08:46:34.879Z,17.90
2022-11-10T08:48:03.800Z,17.75
2022-11-10T08:49:24.638Z,17.23
2022-11-10T08:50:46.662Z,16.50
2022-11-10T08:52:07.274Z,16.98
2022-11-10T08:53:28.182Z,17.52
2022-11-10T08:54:48.911Z,17.33
2022-11-10T08:56:14.346Z,18.20
2022-11-10T08:57:35.173Z,17.88
2022-11-10T08:58:56.985Z,18.40
2022-11-10T09:00:20.426Z,16.90
2022-11-10T09:01:41.197Z,18.08
2022-11-10T09:03:22.139Z,17.20
2022-11-10T09:04:43.423Z,18.33
2022-11-10T09:06:04.711Z,17.70
2022-11-10T09:07:25.511Z,17.30
2022-11-10T09:08:46.143Z,17.80
2022-11-10T09:10:09.729Z,17.77
2022-11-10T09:11:30.904Z,17.42
2022-11-10T09:12:51.859Z,17.63
2022-11-10T09:14:12.517Z,17.35
2022-11-10T09:15:37.283Z,18.05
2022-11-10T09:16:57.730Z,18.15
2022-11-10T09:18:19.437Z,17.85
2022-11-10T09:19:40.801Z,19.05
2022-11-10T09:21:03.611Z,18.70
2022-11-10T09:22:24.397Z,17.80
2022-11-10T09:23:47.807Z,18.13
2022-11-10T09:25:10.882Z,18.63
2022-11-10T09:26:32.057Z,17.67
2022-11-10T09:27:52.909Z,18.27
2022-11-10T09:29:13.819Z,18.23
2022-11-10T09:30:34.286Z,17.30
2022-11-10T09:31:54.679Z,17.65
2022-11-10T09:33:16.853Z,17.90
2022-11-10T09:34:39.026Z,17.73
2022-11-10T09:36:00.119Z,17.20
2022-11-10T09:37:23.773Z,18.65
2022-11-10T09:38:44.263Z,18.02
2022-11-10T09:40:05.762Z,17.55
2022-11-10T09:41:30.106Z,17.67
2022-11-10T09:42:55.624Z,18.52
2022-11-10T09:44:27.028Z,18.17
2022-11-10T09:45:51.379Z,18.75
2022-11-10T09:47:55.812Z,18.98
2022-11-10T09:49:31.623Z,17.85
2022-11-10T09:51:00.166Z,17.35
2022-11-10T09:52:23.877Z,19.05
2022-11-10T09:53:59.066Z,18.67
2022-11-10T09:55:35.163Z,18.83
2022-11-10T09:57:00.536Z,18.20
2022-11-10T09:58:25.764Z,19.50
2022-11-10T09:59:48.489Z,19.05
2022-11-10T10:02:03.035Z,18.52
2022-11-10T10:03:31.368Z,19.30
2022-11-10T10:04:52.337Z,18.67
2022-11-10T10:06:14.690Z,17.25
2022-11-10T10:07:37.808Z,20.33
2022-11-10T10:09:12.044Z,18.25
2022-11-10T10:10:44.848Z,20.08
2022-11-10T10:12:24.619Z,18.52
2022-11-10T10:14:13.269Z,19.80
2022-11-10T10:15:52.866Z,19.92
2022-11-10T10:17:30.359Z,19.15
2022-11-10T10:18:53.446Z,18.90
2022-11-10T10:20:24.058Z,18.65
2022-11-10T10:22:02.837Z,18.67
2022-11-10T10:24:02.039Z,19.60
2022-11-10T10:25:22.963Z,18.60
2022-11-10T10:26:52.981Z,19.15
2022-11-10T10:28:33.919Z,20.15
2022-11-10T10:29:55.189Z,19.85
2022-11-10T10:31:25.434Z,18.95
2022-11-10T10:32:47.744Z,20.13
2022-11-10T10:34:20.937Z,19.67
2022-11-10T10:35:43.731Z,20.25
2022-11-10T10:37:04.478Z,18.92
2022-11-10T10:38:38.736Z,20.42
2022-11-10T10:39:59.299Z,20.05
2022-11-10T10:41:29.448Z,19.20
2022-11-10T10:42:50.924Z,21.95
2022-11-10T10:44:20.707Z,20.23
2022-11-10T10:45:45.377Z,19.73
2022-11-10T10:47:05.713Z,20.70
2022-11-10T10:48:30.747Z,20.00
2022-11-10T10:49:51.443Z,19.85
2022-11-10T10:51:28.448Z,19.52
2022-11-10T10:53:15.964Z,20.13
2022-11-10T10:54:38.475Z,19.45
2022-11-10T10:56:11.726Z,20.10
2022-11-10T10:57:33.379Z,19.88
2022-11-10T10:58:56.597Z,19.35
2022-11-10T11:00:24.251Z,20.15
2022-11-10T11:01:45.486Z,19.63
2022-11-10T11:03:22.318Z,19.92
2022-11-10T11:04:43.124Z,19.42
2022-11-10T11:06:16.659Z,20.35
2022-11-10T11:07:37.941Z,19.95
2022-11-10T11:09:00.492Z,20.55
2022-11-10T11:10:33.250Z,19.90
2022-11-10T11:12:07.669Z,20.30
2022-11-10T11:13:31.135Z,20.52
2022-11-10T11:14:51.883Z,21.25
2022-11-10T11:16:12.930Z,19.95
2022-11-10T11:17:34.652Z,20.02
2022-11-10T11:18:55.220Z,19.83
2022-11-10T11:20:16.217Z,20.52
2022-11-10T11:21:52.001Z,20.58
2022-11-10T11:23:22.602Z,20.73
2022-11-10T11:24:51.515Z,20.75
2022-11-10T11:26:41.208Z,21.38
2022-11-10T11:28:22.857Z,20.48
2022-11-10T11:29:55.907Z,19.70
2022-11-10T11:31:42.908Z,20.70
2022-11-10T11:33:22.107Z,21.05
2022-11-10T11:34:57.814Z,20.20
2022-11-10T11:36:38.295Z,19.95
2022-11-10T11:38:23.105Z,19.50
2022-11-10T11:39:54.093Z,19.83
2022-11-10T11:41:29.727Z,20.75
2022-11-10T11:43:07.562Z,20.73
2022-11-10T11:44:50.904Z,20.10
2022-11-10T11:46:46.395Z,19.70
2022-11-10T11:48:23.761Z,20.33
2022-11-10T11:50:23.119Z,21.38
2022-11-10T11:51:54.275Z,19.77
2022-11-10T11:53:24.013Z,20.08
2022-11-10T11:55:10.556Z,21.40
2022-11-10T11:56:35.390Z,20.15
2022-11-10T11:58:34.071Z,21.20
2022-11-10T12:00:13.222Z,20.00
2022-11-10T12:01:57.728Z,21.05
2022-11-10T12:03:47.427Z,20.35
2022-11-10T12:05:45.416Z,21.17
2022-11-10T12:07:16.376Z,21.05
2022-11-10T12:08:44.174Z,21.02
2022-11-10T12:10:14.345Z,20.65
2022-11-10T12:11:49.932Z,20.15
2022-11-10T12:13:25.464Z,20.33
2022-11-10T12:14:58.015Z,18.10
2022-11-10T12:16:35.091Z,19.85
2022-11-10T12:18:01.939Z,19.70
2022-11-10T12:19:28.896Z,20.17
2022-11-10T12:21:19.766Z,20.63
2022-11-10T12:22:55.127Z,19.08
2022-11-10T12:24:39.281Z,20.25
2022-11-10T12:26:36.865Z,23.05
2022-11-10T12:28:11.797Z,21.45
2022-11-10T12:29:45.115Z,20.55
2022-11-10T12:31:14.913Z,20.65
2022-11-10T12:32:40.568Z,20.48
2022-11-10T12:34:11.628Z,20.60
2022-11-10T12:35:42.345Z,20.00
2022-11-10T12:37:06.908Z,20.83
2022-11-10T12:38:47.795Z,21.27
2022-11-10T12:40:22.356Z,20.17
2022-11-10T12:42:01.665Z,20.73
2022-11-10T12:43:28.086Z,20.90
2022-11-10T12:45:00.919Z,19.95
2022-11-10T12:46:21.687Z,19.80
2022-11-10T12:47:47.106Z,21.88
2022-11-10T12:49:28.432Z,23.23
2022-11-10T12:50:58.718Z,20.85
2022-11-10T12:52:33.627Z,21.05
2022-11-10T12:53:54.294Z,21.17
2022-11-10T12:55:15.542Z,20.83
2022-11-10T12:56:58.168Z,20.48
2022-11-10T12:58:20.245Z,22.67
2022-11-10T13:00:08.315Z,21.17
2022-11-10T13:01:29.215Z,21.45
2022-11-10T13:02:51.636Z,21.33
2022-11-10T13:04:15.614Z,21.02
2022-11-10T13:05:42.223Z,21.75
2022-11-10T13:07:11.854Z,21.20
2022-11-10T13:08:42.413Z,21.58
2022-11-10T13:10:24.555Z,23.23
2022-11-10T13:12:05.641Z,22.25
2022-11-10T13:13:27.356Z,22.30
2022-11-10T13:14:49.051Z,22.20
2022-11-10T13:16:10.944Z,22.00
2022-11-10T13:17:34.431Z,21.67
2022-11-10T13:18:55.182Z,22.25
2022-11-10T13:20:50.087Z,21.85
2022-11-10T13:22:29.930Z,21.75
2022-11-10T13:23:50.613Z,23.02
2022-11-10T13:25:35.799Z,21.25
2022-11-10T13:26:59.038Z,22.02
2022-11-10T13:28:47.402Z,22.40
2022-11-10T13:31:33.668Z,21.98
2022-11-10T13:32:54.277Z,23.55
2022-11-10T13:34:38.143Z,23.45
2022-11-10T13:35:58.932Z,22.25
2022-11-10T13:37:49.713Z,21.45
2022-11-10T13:39:24.159Z,22.00
2022-11-10T13:40:45.115Z,21.33
2022-11-10T13:42:08.298Z,20.98
2022-11-10T13:43:29.462Z,22.15
2022-11-10T13:44:54.608Z,22.58
2022-11-10T13:46:16.032Z,21.92
2022-11-10T13:47:45.292Z,22.20
2022-11-10T13:49:15.713Z,22.73
2022-11-10T13:51:02.902Z,22.25
2022-11-10T13:52:49.028Z,22.60
2022-11-10T13:54:31.052Z,21.63
2022-11-10T13:55:55.460Z,21.75
2022-11-10T13:57:42.190Z,22.30
2022-11-10T13:59:30.505Z,22.40
2022-11-10T14:01:16.906Z,21.77
2022-11-10T14:02:51.227Z,24.02
2022-11-10T14:04:37.617Z,22.48
2022-11-10T14:06:09.352Z,21.88
2022-11-10T14:07:37.842Z,22.05
2022-11-10T14:09:33.900Z,25.30
2022-11-10T14:11:04.991Z,24.58
2022-11-10T14:12:37.534Z,23.02
2022-11-10T14:14:06.208Z,23.65
2022-11-10T14:16:56.628Z,21.85
2022-11-10T14:18:39.025Z,23.40
2022-11-10T14:20:00.420Z,24.30
2022-11-10T14:21:27.541Z,23.70
2022-11-10T14:22:50.122Z,23.92
2022-11-10T14:24:19.307Z,22.58
2022-11-10T14:25:44.746Z,23.20
2022-11-10T14:27:13.434Z,24.25
2022-11-10T14:28:37.719Z,24.33
2022-11-10T14:30:12.200Z,24.45
2022-11-10T14:31:36.242Z,24.65
2022-11-10T14:33:10.917Z,25.25
2022-11-10T14:34:36.518Z,26.90
2022-11-10T14:36:01.173Z,26.73
2022-11-10T14:37:28.226Z,27.92
2022-11-10T14:38:49.899Z,23.90
2022-11-10T14:40:18.288Z,23.65
2022-11-10T14:41:47.479Z,24.42
2022-11-10T14:43:36.961Z,24.60
2022-11-10T14:45:18.872Z,24.50
2022-11-10T14:46:39.756Z,24.30
2022-11-10T14:48:01.259Z,30.40
2022-11-10T14:49:24.850Z,24.05
2022-11-10T14:50:47.776Z,24.27
2022-11-10T14:52:12.333Z,24.77
2022-11-10T14:53:38.306Z,25.45
2022-11-10T14:54:59.700Z,25.25
2022-11-10T14:56:24.756Z,25.17
2022-11-10T14:57:51.252Z,24.95
2022-11-10T14:59:13.754Z,24.30
2022-11-10T15:00:38.818Z,26.48
2022-11-10T15:02:01.750Z,25.85
2022-11-10T15:03:38.413Z,26.00
2022-11-10T15:04:59.266Z,26.38
2022-11-10T15:06:21.735Z,26.10
2022-11-10T15:07:44.252Z,27.08
2022-11-10T15:09:16.488Z,25.27
2022-11-10T15:10:49.573Z,26.02
2022-11-10T15:12:12.798Z,25.98
2022-11-10T15:13:38.912Z,25.45
2022-11-10T15:15:01.181Z,25.70
2022-11-10T15:16:26.102Z,25.20
2022-11-10T15:17:51.623Z,25.73
2022-11-10T15:19:29.300Z,26.92
2022-11-10T15:21:03.274Z,25.88
2022-11-10T15:22:34.327Z,25.65
2022-11-10T15:23:59.695Z,25.67
2022-11-10T15:25:23.299Z,25.70
2022-11-10T15:26:44.046Z,27.42
2022-11-10T15:28:17.946Z,25.77
2022-11-10T15:29:38.751Z,26.23
2022-11-10T15:31:06.298Z,25.42
2022-11-10T15:32:49.359Z,27.00
2022-11-10T15:34:48.831Z,28.75
2022-11-10T15:36:17.103Z,25.70
2022-11-10T15:37:37.505Z,26.38
2022-11-10T15:39:03.400Z,26.05
2022-11-10T15:40:44.999Z,27.70
2022-11-10T15:42:14.778Z,26.80
2022-11-10T15:43:35.130Z,27.67
2022-11-10T15:45:03.058Z,26.77
2022-11-10T15:46:26.210Z,27.15
2022-11-10T15:47:47.302Z,27.83
2022-11-10T15:49:40.861Z,26.98
2022-11-10T15:51:01.253Z,26.58
2022-11-10T15:52:23.607Z,26.90
2022-11-10T15:53:47.094Z,26.45
2022-11-10T15:55:20.289Z,26.42
2022-11-10T15:56:40.907Z,27.52
2022-11-10T15:58:01.394Z,26.50
2022-11-10T15:59:22.219Z,27.23
2022-11-10T16:00:42.998Z,26.75
2022-11-10T16:02:10.239Z,27.38
2022-11-10T16:03:31.518Z,27.45
2022-11-10T16:04:59.958Z,27.38
2022-11-10T16:06:20.667Z,28.25
2022-11-10T16:07:41.350Z,28.10
2022-11-10T16:09:01.947Z,26.58
2022-11-10T16:10:24.840Z,29.85
2022-11-10T16:11:46.121Z,27.52
2022-11-10T16:13:08.169Z,26.90
2022-11-10T16:14:29.829Z,28.90
2022-11-10T16:15:50.591Z,26.73
2022-11-10T16:17:12.594Z,28.48
2022-11-10T16:18:33.593Z,27.52
2022-11-10T16:19:54.011Z,27.88
2022-11-10T16:21:17.733Z,26.90
2022-11-10T16:22:38.143Z,28.27
2022-11-10T16:24:00.003Z,26.52
2022-11-10T16:25:26.579Z,27.20
2022-11-10T16:26:48.443Z,26.48
2022-11-10T16:28:14.024Z,26.38
2022-11-10T16:29:36.539Z,27.23
2022-11-10T16:30:57.266Z,28.30
2022-11-10T16:32:20.848Z,29.42
2022-11-10T16:33:42.219Z,28.63
2022-11-10T16:35:03.903Z,27.70
2022-11-10T16:36:30.939Z,28.15
2022-11-10T16:37:51.705Z,27.65
2022-11-10T16:39:14.739Z,28.52
2022-11-10T16:40:35.287Z,28.60
2022-11-10T16:41:56.342Z,30.00
2022-11-10T16:43:18.040Z,30.08
2022-11-10T16:44:42.326Z,33.65
2022-11-10T16:46:05.946Z,31.02
2022-11-10T16:47:28.019Z,31.17
2022-11-10T16:48:52.656Z,29.23
2022-11-10T16:50:28.554Z,27.23
2022-11-10T16:51:49.752Z,27.48
2022-11-10T16:53:17.919Z,28.70
2022-11-10T16:54:38.854Z,28.95
2022-11-10T16:55:59.731Z,27.92
2022-11-10T16:57:20.894Z,27.08
2022-11-10T16:58:41.660Z,28.13
2022-11-10T17:00:03.327Z,27.95
2022-11-10T17:01:28.319Z,28.17
2022-11-10T17:03:11.062Z,27.25
2022-11-10T17:04:31.822Z,27.17
2022-11-10T17:05:54.661Z,27.17
2022-11-10T17:07:15.786Z,27.88
2022-11-10T17:08:37.041Z,27.30
2022-11-10T17:09:59.114Z,28.05
2022-11-10T17:11:20.372Z,26.70
2022-11-10T17:12:42.152Z,26.90
2022-11-10T17:14:03.087Z,26.38
2022-11-10T17:15:24.523Z,28.00
2022-11-10T17:16:49.977Z,26.83
2022-11-10T17:18:17.273Z,26.10
2022-11-10T17:19:38.404Z,28.35
2022-11-10T17:20:58.954Z,26.10
2022-11-10T17:22:22.954Z,26.73
2022-11-10T17:23:44.148Z,27.52
2022-11-10T17:25:05.691Z,27.10
2022-11-10T17:26:26.436Z,29.58
2022-11-10T17:27:47.156Z,30.52
2022-11-10T17:29:17.353Z,26.80
2022-11-10T17:30:38.280Z,27.30
2022-11-10T17:31:58.977Z,28.00
2022-11-10T17:33:20.595Z,26.65
2022-11-10T17:34:41.811Z,28.10
2022-11-10T17:36:05.345Z,27.52
2022-11-10T17:37:26.135Z,26.38
2022-11-10T17:38:46.987Z,28.63
2022-11-10T17:40:28.146Z,27.13
2022-11-10T17:41:49.223Z,28.20
2022-11-10T17:43:14.096Z,28.70
2022-11-10T17:44:34.787Z,25.67
2022-11-10T17:45:55.448Z,27.10
2022-11-10T17:47:16.636Z,25.25
2022-11-10T17:48:37.488Z,24.80
2022-11-10T17:49:58.550Z,25.05
2022-11-10T17:51:21.110Z,25.25
2022-11-10T17:52:42.592Z,25.10
2022-11-10T17:54:04.874Z,29.13
2022-11-10T17:55:34.041Z,25.73
2022-11-10T17:56:56.805Z,25.08
2022-11-10T17:58:18.364Z,25.80
2022-11-10T17:59:39.215Z,25.13
2022-11-10T18:01:00.376Z,25.40
2022-11-10T18:02:21.775Z,25.13
2022-11-10T18:03:42.702Z,24.15
2022-11-10T18:05:03.622Z,23.40
2022-11-10T18:06:24.303Z,24.33
2022-11-10T18:07:50.310Z,24.33
2022-11-10T18:09:10.863Z,24.20
2022-11-10T18:10:31.919Z,25.48
2022-11-10T18:11:52.766Z,24.52
2022-11-10T18:13:13.903Z,25.63
2022-11-10T18:14:39.135Z,25.08
2022-11-10T18:16:00.712Z,23.02
2022-11-10T18:17:21.810Z,24.08
2022-11-10T18:18:42.505Z,23.95
2022-11-10T18:20:03.745Z,22.38
2022-11-10T18:21:24.309Z,23.58
2022-11-10T18:22:45.111Z,24.45
2022-11-10T18:24:05.852Z,24.30
2022-11-10T18:25:26.798Z,24.58